sensor_id;sensor_type;location;lat;lon;timestamp;P1;durP1;ratioP1;P2;durP2;ratioP2
64037;SDS011;54641;50.168;8.492;2023-02-28T00:00:39;6.50;;;4.00;;
64037;SDS011;54641;50.168;8.492;2023-02-28T00:03:10;8.30;;;4.40;;
64037;SDS011;54641;50.168;8.492;2023-02-28T00:05:41;5.70;;;3.10;;
64037;SDS011;54641;50.168;8.492;2023-02-28T00:08:11;7.50;;;4.30;;
64037;SDS011;54641;50.168;8.492;2023-02-28T00:10:42;6.70;;;3.60;;
64037;SDS011;54641;50.168;8.492;2023-02-28T00:13:13;6.50;;;3.80;;
64037;SDS011;54641;50.168;8.492;2023-02-28T00:15:44;5.50;;;3.00;;
64037;SDS011;54641;50.168;8.492;2023-02-28T00:18:14;5.50;;;2.60;;
64037;SDS011;54641;50.168;8.492;2023-02-28T00:20:45;4.80;;;2.80;;
64037;SDS011;54641;50.168;8.492;2023-02-28T00:23:15;6.40;;;3.50;;
64037;SDS011;54641;50.168;8.492;2023-02-28T00:25:46;9.60;;;4.70;;
64037;SDS011;54641;50.168;8.492;2023-02-28T00:28:17;6.90;;;3.60;;
64037;SDS011;54641;50.168;8.492;2023-02-28T00:30:47;5.20;;;3.20;;
64037;SDS011;54641;50.168;8.492;2023-02-28T00:33:18;6.30;;;3.50;;
64037;SDS011;54641;50.168;8.492;2023-02-28T00:35:49;7.00;;;4.00;;
64037;SDS011;54641;50.168;8.492;2023-02-28T00:38:20;8.30;;;4.30;;
64037;SDS011;54641;50.168;8.492;2023-02-28T00:40:50;7.90;;;4.40;;
64037;SDS011;54641;50.168;8.492;2023-02-28T00:43:21;7.90;;;4.50;;
64037;SDS011;54641;50.168;8.492;2023-02-28T00:45:51;8.30;;;4.10;;
64037;SDS011;54641;50.168;8.492;2023-02-28T00:48:22;10.20;;;5.20;;
64037;SDS011;54641;50.168;8.492;2023-02-28T00:50:53;6.00;;;3.10;;
64037;SDS011;54641;50.168;8.492;2023-02-28T00:53:24;7.10;;;4.10;;
64037;SDS011;54641;50.168;8.492;2023-02-28T00:55:54;8.30;;;4.40;;
64037;SDS011;54641;50.168;8.492;2023-02-28T00:58:26;7.40;;;3.80;;
64037;SDS011;54641;50.168;8.492;2023-02-28T01:00:57;11.70;;;5.70;;
64037;SDS011;54641;50.168;8.492;2023-02-28T01:03:28;7.60;;;4.30;;
64037;SDS011;54641;50.168;8.492;2023-02-28T01:05:58;8.50;;;4.70;;
64037;SDS011;54641;50.168;8.492;2023-02-28T01:08:29;7.20;;;4.50;;
64037;SDS011;54641;50.168;8.492;2023-02-28T01:11:06;7.80;;;4.80;;
64037;SDS011;54641;50.168;8.492;2023-02-28T01:13:40;10.60;;;5.50;;
64037;SDS011;54641;50.168;8.492;2023-02-28T01:16:12;6.20;;;4.00;;
64037;SDS011;54641;50.168;8.492;2023-02-28T01:18:43;9.90;;;5.20;;
64037;SDS011;54641;50.168;8.492;2023-02-28T01:21:15;8.60;;;4.30;;
64037;SDS011;54641;50.168;8.492;2023-02-28T01:23:47;9.20;;;3.80;;
64037;SDS011;54641;50.168;8.492;2023-02-28T01:26:19;10.30;;;4.90;;
64037;SDS011;54641;50.168;8.492;2023-02-28T01:28:50;6.90;;;4.60;;
64037;SDS011;54641;50.168;8.492;2023-02-28T01:31:22;8.20;;;4.70;;
64037;SDS011;54641;50.168;8.492;2023-02-28T01:33:53;10.70;;;4.70;;
64037;SDS011;54641;50.168;8.492;2023-02-28T01:36:27;6.60;;;3.20;;
64037;SDS011;54641;50.168;8.492;2023-02-28T01:38:58;10.60;;;5.30;;
64037;SDS011;54641;50.168;8.492;2023-02-28T01:41:29;8.40;;;4.50;;
64037;SDS011;54641;50.168;8.492;2023-02-28T01:44:02;7.20;;;3.90;;
64037;SDS011;54641;50.168;8.492;2023-02-28T01:46:35;5.70;;;2.90;;
64037;SDS011;54641;50.168;8.492;2023-02-28T01:49:07;6.60;;;4.00;;
64037;SDS011;54641;50.168;8.492;2023-02-28T01:51:41;5.60;;;3.40;;
64037;SDS011;54641;50.168;8.492;2023-02-28T01:54:14;6.70;;;3.80;;
64037;SDS011;54641;50.168;8.492;2023-02-28T01:56:48;8.70;;;4.30;;
64037;SDS011;54641;50.168;8.492;2023-02-28T01:59:23;7.20;;;4.60;;
64037;SDS011;54641;50.168;8.492;2023-02-28T02:01:55;8.00;;;3.90;;
64037;SDS011;54641;50.168;8.492;2023-02-28T02:04:27;10.30;;;4.70;;
64037;SDS011;54641;50.168;8.492;2023-02-28T02:07:03;4.30;;;2.70;;
64037;SDS011;54641;50.168;8.492;2023-02-28T02:09:35;6.00;;;3.50;;
64037;SDS011;54641;50.168;8.492;2023-02-28T02:12:08;7.40;;;4.00;;
64037;SDS011;54641;50.168;8.492;2023-02-28T02:14:50;10.50;;;4.80;;
64037;SDS011;54641;50.168;8.492;2023-02-28T02:26:24;7.30;;;3.50;;
64037;SDS011;54641;50.168;8.492;2023-02-28T02:29:26;5.00;;;3.00;;
64037;SDS011;54641;50.168;8.492;2023-02-28T02:32:39;7.30;;;4.40;;
64037;SDS011;54641;50.168;8.492;2023-02-28T02:35:18;5.60;;;3.20;;
64037;SDS011;54641;50.168;8.492;2023-02-28T02:37:56;9.90;;;4.10;;
64037;SDS011;54641;50.168;8.492;2023-02-28T02:40:32;5.10;;;3.10;;
64037;SDS011;54641;50.168;8.492;2023-02-28T02:43:08;7.10;;;4.00;;
64037;SDS011;54641;50.168;8.492;2023-02-28T02:45:43;6.50;;;3.80;;
64037;SDS011;54641;50.168;8.492;2023-02-28T02:48:17;6.20;;;3.00;;
64037;SDS011;54641;50.168;8.492;2023-02-28T02:50:50;4.40;;;2.20;;
64037;SDS011;54641;50.168;8.492;2023-02-28T02:53:23;7.50;;;3.50;;
64037;SDS011;54641;50.168;8.492;2023-02-28T02:55:56;5.70;;;3.60;;
64037;SDS011;54641;50.168;8.492;2023-02-28T03:01:00;7.90;;;3.40;;
64037;SDS011;54641;50.168;8.492;2023-02-28T03:03:31;6.50;;;3.40;;
64037;SDS011;54641;50.168;8.492;2023-02-28T03:06:03;5.20;;;3.30;;
64037;SDS011;54641;50.168;8.492;2023-02-28T03:08:36;5.40;;;3.00;;
64037;SDS011;54641;50.168;8.492;2023-02-28T03:11:11;7.10;;;4.00;;
64037;SDS011;54641;50.168;8.492;2023-02-28T03:13:45;5.50;;;3.00;;
64037;SDS011;54641;50.168;8.492;2023-02-28T03:19:45;6.90;;;3.70;;
64037;SDS011;54641;50.168;8.492;2023-02-28T03:22:22;4.00;;;2.40;;
64037;SDS011;54641;50.168;8.492;2023-02-28T03:25:03;5.30;;;2.90;;
64037;SDS011;54641;50.168;8.492;2023-02-28T03:27:36;8.10;;;4.20;;
64037;SDS011;54641;50.168;8.492;2023-02-28T03:30:11;7.80;;;4.50;;
64037;SDS011;54641;50.168;8.492;2023-02-28T03:32:47;6.20;;;3.40;;
64037;SDS011;54641;50.168;8.492;2023-02-28T03:35:22;6.40;;;4.00;;
64037;SDS011;54641;50.168;8.492;2023-02-28T03:37:56;6.00;;;3.80;;
64037;SDS011;54641;50.168;8.492;2023-02-28T03:40:32;5.30;;;3.00;;
64037;SDS011;54641;50.168;8.492;2023-02-28T03:43:04;7.00;;;3.30;;
64037;SDS011;54641;50.168;8.492;2023-02-28T03:45:38;4.80;;;2.90;;
64037;SDS011;54641;50.168;8.492;2023-02-28T03:48:11;6.40;;;3.10;;
64037;SDS011;54641;50.168;8.492;2023-02-28T03:50:44;7.30;;;3.90;;
64037;SDS011;54641;50.168;8.492;2023-02-28T03:53:17;7.80;;;4.00;;
64037;SDS011;54641;50.168;8.492;2023-02-28T03:55:52;4.60;;;2.80;;
64037;SDS011;54641;50.168;8.492;2023-02-28T03:58:26;6.80;;;3.60;;
64037;SDS011;54641;50.168;8.492;2023-02-28T04:01:00;7.80;;;3.00;;
64037;SDS011;54641;50.168;8.492;2023-02-28T04:03:36;6.50;;;3.60;;
64037;SDS011;54641;50.168;8.492;2023-02-28T04:06:08;7.20;;;3.70;;
64037;SDS011;54641;50.168;8.492;2023-02-28T04:08:44;5.50;;;3.60;;
64037;SDS011;54641;50.168;8.492;2023-02-28T04:11:18;8.50;;;4.20;;
64037;SDS011;54641;50.168;8.492;2023-02-28T04:13:51;5.60;;;3.30;;
64037;SDS011;54641;50.168;8.492;2023-02-28T04:16:21;6.50;;;3.50;;
64037;SDS011;54641;50.168;8.492;2023-02-28T04:19:02;7.40;;;3.20;;
64037;SDS011;54641;50.168;8.492;2023-02-28T04:21:34;6.40;;;3.30;;
64037;SDS011;54641;50.168;8.492;2023-02-28T04:24:06;7.00;;;3.30;;
64037;SDS011;54641;50.168;8.492;2023-02-28T04:26:42;5.60;;;3.30;;
64037;SDS011;54641;50.168;8.492;2023-02-28T04:29:17;6.60;;;2.70;;
64037;SDS011;54641;50.168;8.492;2023-02-28T04:31:49;6.00;;;3.00;;
64037;SDS011;54641;50.168;8.492;2023-02-28T04:34:21;7.80;;;3.40;;
64037;SDS011;54641;50.168;8.492;2023-02-28T04:36:52;6.80;;;3.30;;
64037;SDS011;54641;50.168;8.492;2023-02-28T04:39:39;5.80;;;3.20;;
64037;SDS011;54641;50.168;8.492;2023-02-28T04:42:10;6.00;;;2.60;;
64037;SDS011;54641;50.168;8.492;2023-02-28T04:44:41;3.70;;;2.00;;
64037;SDS011;54641;50.168;8.492;2023-02-28T04:47:12;6.20;;;2.80;;
64037;SDS011;54641;50.168;8.492;2023-02-28T04:49:42;4.90;;;2.80;;
64037;SDS011;54641;50.168;8.492;2023-02-28T04:52:13;4.30;;;2.30;;
64037;SDS011;54641;50.168;8.492;2023-02-28T04:54:44;5.70;;;2.50;;
64037;SDS011;54641;50.168;8.492;2023-02-28T04:57:14;5.00;;;2.80;;
64037;SDS011;54641;50.168;8.492;2023-02-28T04:59:45;7.00;;;3.40;;
64037;SDS011;54641;50.168;8.492;2023-02-28T05:02:16;4.40;;;2.30;;
64037;SDS011;54641;50.168;8.492;2023-02-28T05:04:49;5.00;;;2.70;;
64037;SDS011;54641;50.168;8.492;2023-02-28T05:07:19;4.30;;;2.30;;
64037;SDS011;54641;50.168;8.492;2023-02-28T05:09:50;6.30;;;2.70;;
64037;SDS011;54641;50.168;8.492;2023-02-28T05:12:20;5.10;;;2.60;;
64037;SDS011;54641;50.168;8.492;2023-02-28T05:14:51;4.60;;;2.30;;
64037;SDS011;54641;50.168;8.492;2023-02-28T05:17:22;5.50;;;2.60;;
64037;SDS011;54641;50.168;8.492;2023-02-28T05:19:52;4.50;;;2.70;;
64037;SDS011;54641;50.168;8.492;2023-02-28T05:22:40;5.60;;;2.50;;
64037;SDS011;54641;50.168;8.492;2023-02-28T05:25:13;5.70;;;2.80;;
64037;SDS011;54641;50.168;8.492;2023-02-28T05:27:46;6.10;;;2.50;;
64037;SDS011;54641;50.168;8.492;2023-02-28T05:30:17;4.60;;;2.50;;
64037;SDS011;54641;50.168;8.492;2023-02-28T05:32:51;4.50;;;2.50;;
64037;SDS011;54641;50.168;8.492;2023-02-28T05:35:22;5.80;;;3.00;;
64037;SDS011;54641;50.168;8.492;2023-02-28T05:40:24;5.70;;;2.50;;
64037;SDS011;54641;50.168;8.492;2023-02-28T05:42:54;4.70;;;3.00;;
64037;SDS011;54641;50.168;8.492;2023-02-28T05:45:25;5.40;;;2.80;;
64037;SDS011;54641;50.168;8.492;2023-02-28T05:47:56;6.80;;;2.80;;
64037;SDS011;54641;50.168;8.492;2023-02-28T05:50:26;4.90;;;2.40;;
64037;SDS011;54641;50.168;8.492;2023-02-28T05:52:57;7.50;;;2.90;;
64037;SDS011;54641;50.168;8.492;2023-02-28T05:55:27;5.00;;;2.30;;
64037;SDS011;54641;50.168;8.492;2023-02-28T05:57:58;4.90;;;2.80;;
64037;SDS011;54641;50.168;8.492;2023-02-28T06:00:29;5.60;;;2.80;;
64037;SDS011;54641;50.168;8.492;2023-02-28T06:03:00;6.40;;;3.10;;
64037;SDS011;54641;50.168;8.492;2023-02-28T06:05:31;6.30;;;3.20;;
64037;SDS011;54641;50.168;8.492;2023-02-28T06:08:02;7.70;;;3.00;;
64037;SDS011;54641;50.168;8.492;2023-02-28T06:10:37;5.20;;;2.50;;
64037;SDS011;54641;50.168;8.492;2023-02-28T06:13:07;8.30;;;3.50;;
64037;SDS011;54641;50.168;8.492;2023-02-28T06:15:39;5.50;;;2.70;;
64037;SDS011;54641;50.168;8.492;2023-02-28T06:18:10;8.00;;;3.20;;
64037;SDS011;54641;50.168;8.492;2023-02-28T06:20:40;7.20;;;3.10;;
64037;SDS011;54641;50.168;8.492;2023-02-28T06:23:11;5.10;;;2.80;;
64037;SDS011;54641;50.168;8.492;2023-02-28T06:25:41;6.70;;;2.90;;
64037;SDS011;54641;50.168;8.492;2023-02-28T06:28:15;6.20;;;3.00;;
64037;SDS011;54641;50.168;8.492;2023-02-28T06:30:45;6.70;;;3.40;;
64037;SDS011;54641;50.168;8.492;2023-02-28T06:33:16;5.70;;;3.10;;
64037;SDS011;54641;50.168;8.492;2023-02-28T06:35:49;7.70;;;2.70;;
64037;SDS011;54641;50.168;8.492;2023-02-28T06:38:20;5.00;;;2.90;;
64037;SDS011;54641;50.168;8.492;2023-02-28T06:40:54;4.70;;;2.40;;
64037;SDS011;54641;50.168;8.492;2023-02-28T06:43:25;4.10;;;2.50;;
64037;SDS011;54641;50.168;8.492;2023-02-28T06:45:59;8.80;;;3.60;;
64037;SDS011;54641;50.168;8.492;2023-02-28T06:48:31;6.30;;;3.00;;
64037;SDS011;54641;50.168;8.492;2023-02-28T06:51:03;5.60;;;2.70;;
64037;SDS011;54641;50.168;8.492;2023-02-28T06:53:35;6.30;;;3.10;;
64037;SDS011;54641;50.168;8.492;2023-02-28T06:56:06;5.90;;;3.10;;
64037;SDS011;54641;50.168;8.492;2023-02-28T06:58:38;6.80;;;2.40;;
64037;SDS011;54641;50.168;8.492;2023-02-28T07:01:09;5.80;;;3.10;;
64037;SDS011;54641;50.168;8.492;2023-02-28T07:03:39;6.10;;;3.40;;
64037;SDS011;54641;50.168;8.492;2023-02-28T07:06:10;5.50;;;2.90;;
64037;SDS011;54641;50.168;8.492;2023-02-28T07:08:41;7.20;;;2.90;;
64037;SDS011;54641;50.168;8.492;2023-02-28T07:11:11;5.50;;;3.20;;
64037;SDS011;54641;50.168;8.492;2023-02-28T07:13:41;5.90;;;3.30;;
64037;SDS011;54641;50.168;8.492;2023-02-28T07:16:12;6.30;;;3.20;;
64037;SDS011;54641;50.168;8.492;2023-02-28T07:18:43;5.10;;;2.60;;
64037;SDS011;54641;50.168;8.492;2023-02-28T07:21:14;6.60;;;3.70;;
64037;SDS011;54641;50.168;8.492;2023-02-28T07:23:45;6.50;;;3.50;;
64037;SDS011;54641;50.168;8.492;2023-02-28T07:26:16;6.10;;;3.40;;
64037;SDS011;54641;50.168;8.492;2023-02-28T07:28:47;6.80;;;3.80;;
64037;SDS011;54641;50.168;8.492;2023-02-28T07:31:18;7.00;;;4.30;;
64037;SDS011;54641;50.168;8.492;2023-02-28T07:33:49;5.40;;;3.50;;
64037;SDS011;54641;50.168;8.492;2023-02-28T07:36:21;5.40;;;3.50;;
64037;SDS011;54641;50.168;8.492;2023-02-28T07:38:51;7.50;;;4.30;;
64037;SDS011;54641;50.168;8.492;2023-02-28T07:41:22;7.20;;;4.40;;
64037;SDS011;54641;50.168;8.492;2023-02-28T07:43:55;11.40;;;4.70;;
64037;SDS011;54641;50.168;8.492;2023-02-28T07:46:27;6.70;;;3.70;;
64037;SDS011;54641;50.168;8.492;2023-02-28T07:49:03;6.20;;;3.70;;
64037;SDS011;54641;50.168;8.492;2023-02-28T07:51:34;8.10;;;4.30;;
64037;SDS011;54641;50.168;8.492;2023-02-28T07:54:05;7.10;;;4.70;;
64037;SDS011;54641;50.168;8.492;2023-02-28T07:56:35;7.40;;;4.20;;
64037;SDS011;54641;50.168;8.492;2023-02-28T07:59:07;6.60;;;4.20;;
64037;SDS011;54641;50.168;8.492;2023-02-28T08:01:37;8.70;;;4.60;;
64037;SDS011;54641;50.168;8.492;2023-02-28T08:04:08;6.90;;;4.10;;
64037;SDS011;54641;50.168;8.492;2023-02-28T08:06:38;6.90;;;4.00;;
64037;SDS011;54641;50.168;8.492;2023-02-28T08:09:09;5.70;;;4.00;;
64037;SDS011;54641;50.168;8.492;2023-02-28T08:11:40;6.60;;;3.80;;
64037;SDS011;54641;50.168;8.492;2023-02-28T08:14:10;6.30;;;3.80;;
64037;SDS011;54641;50.168;8.492;2023-02-28T08:16:41;6.60;;;3.70;;
64037;SDS011;54641;50.168;8.492;2023-02-28T08:19:11;5.80;;;4.00;;
64037;SDS011;54641;50.168;8.492;2023-02-28T08:21:42;7.40;;;4.40;;
64037;SDS011;54641;50.168;8.492;2023-02-28T08:24:12;7.80;;;4.50;;
64037;SDS011;54641;50.168;8.492;2023-02-28T08:26:43;6.40;;;4.30;;
64037;SDS011;54641;50.168;8.492;2023-02-28T08:29:13;7.60;;;4.90;;
64037;SDS011;54641;50.168;8.492;2023-02-28T08:31:44;7.50;;;4.40;;
64037;SDS011;54641;50.168;8.492;2023-02-28T08:34:15;7.10;;;4.80;;
64037;SDS011;54641;50.168;8.492;2023-02-28T08:36:46;8.10;;;4.50;;
64037;SDS011;54641;50.168;8.492;2023-02-28T08:39:18;7.60;;;4.60;;
64037;SDS011;54641;50.168;8.492;2023-02-28T08:41:48;9.30;;;5.20;;
64037;SDS011;54641;50.168;8.492;2023-02-28T08:44:33;7.00;;;4.90;;
64037;SDS011;54641;50.168;8.492;2023-02-28T08:47:04;6.80;;;4.30;;
64037;SDS011;54641;50.168;8.492;2023-02-28T08:49:34;7.50;;;5.00;;
64037;SDS011;54641;50.168;8.492;2023-02-28T08:52:05;6.40;;;4.70;;
64037;SDS011;54641;50.168;8.492;2023-02-28T08:54:36;7.90;;;5.00;;
64037;SDS011;54641;50.168;8.492;2023-02-28T08:57:06;11.30;;;4.70;;
64037;SDS011;54641;50.168;8.492;2023-02-28T08:59:37;8.30;;;4.00;;
64037;SDS011;54641;50.168;8.492;2023-02-28T09:02:09;9.30;;;4.80;;
64037;SDS011;54641;50.168;8.492;2023-02-28T09:04:43;7.70;;;5.10;;
64037;SDS011;54641;50.168;8.492;2023-02-28T09:07:14;7.60;;;5.00;;
64037;SDS011;54641;50.168;8.492;2023-02-28T09:09:44;9.90;;;5.00;;
64037;SDS011;54641;50.168;8.492;2023-02-28T09:12:22;7.70;;;5.40;;
64037;SDS011;54641;50.168;8.492;2023-02-28T09:14:54;10.60;;;5.90;;
64037;SDS011;54641;50.168;8.492;2023-02-28T09:17:24;7.00;;;4.90;;
64037;SDS011;54641;50.168;8.492;2023-02-28T09:19:57;7.60;;;5.00;;
64037;SDS011;54641;50.168;8.492;2023-02-28T09:22:28;9.30;;;4.60;;
64037;SDS011;54641;50.168;8.492;2023-02-28T09:24:58;7.90;;;5.20;;
64037;SDS011;54641;50.168;8.492;2023-02-28T09:27:29;8.60;;;6.20;;
64037;SDS011;54641;50.168;8.492;2023-02-28T09:29:59;7.40;;;4.90;;
64037;SDS011;54641;50.168;8.492;2023-02-28T09:32:30;6.50;;;5.30;;
64037;SDS011;54641;50.168;8.492;2023-02-28T09:35:01;8.50;;;5.20;;
64037;SDS011;54641;50.168;8.492;2023-02-28T09:37:32;7.50;;;5.20;;
64037;SDS011;54641;50.168;8.492;2023-02-28T09:40:03;8.30;;;5.50;;
64037;SDS011;54641;50.168;8.492;2023-02-28T09:42:35;7.50;;;4.90;;
64037;SDS011;54641;50.168;8.492;2023-02-28T09:45:10;7.20;;;4.90;;
64037;SDS011;54641;50.168;8.492;2023-02-28T09:47:45;6.40;;;4.90;;
64037;SDS011;54641;50.168;8.492;2023-02-28T09:50:19;8.90;;;5.50;;
64037;SDS011;54641;50.168;8.492;2023-02-28T09:55:30;8.90;;;6.30;;
64037;SDS011;54641;50.168;8.492;2023-02-28T09:58:15;7.00;;;5.00;;
64037;SDS011;54641;50.168;8.492;2023-02-28T10:00:49;10.30;;;6.00;;
64037;SDS011;54641;50.168;8.492;2023-02-28T10:03:27;7.30;;;5.10;;
64037;SDS011;54641;50.168;8.492;2023-02-28T10:08:31;8.80;;;5.30;;
64037;SDS011;54641;50.168;8.492;2023-02-28T10:11:09;7.70;;;5.70;;
64037;SDS011;54641;50.168;8.492;2023-02-28T10:13:48;8.30;;;5.30;;
64037;SDS011;54641;50.168;8.492;2023-02-28T10:16:27;9.30;;;5.70;;
64037;SDS011;54641;50.168;8.492;2023-02-28T10:19:02;6.70;;;4.80;;
64037;SDS011;54641;50.168;8.492;2023-02-28T10:21:35;9.40;;;5.30;;
64037;SDS011;54641;50.168;8.492;2023-02-28T10:24:13;8.80;;;5.90;;
64037;SDS011;54641;50.168;8.492;2023-02-28T10:26:49;9.20;;;6.00;;
64037;SDS011;54641;50.168;8.492;2023-02-28T10:29:23;8.80;;;6.60;;
64037;SDS011;54641;50.168;8.492;2023-02-28T10:31:53;8.20;;;5.60;;
64037;SDS011;54641;50.168;8.492;2023-02-28T10:34:23;7.30;;;4.30;;
64037;SDS011;54641;50.168;8.492;2023-02-28T10:36:54;7.70;;;5.90;;
64037;SDS011;54641;50.168;8.492;2023-02-28T10:39:35;9.30;;;5.80;;
64037;SDS011;54641;50.168;8.492;2023-02-28T10:42:18;9.20;;;5.40;;
64037;SDS011;54641;50.168;8.492;2023-02-28T10:45:07;12.20;;;6.30;;
64037;SDS011;54641;50.168;8.492;2023-02-28T10:47:50;10.10;;;5.80;;
64037;SDS011;54641;50.168;8.492;2023-02-28T10:50:31;10.20;;;5.70;;
64037;SDS011;54641;50.168;8.492;2023-02-28T10:56:06;9.60;;;5.00;;
64037;SDS011;54641;50.168;8.492;2023-02-28T10:58:48;8.00;;;5.40;;
64037;SDS011;54641;50.168;8.492;2023-02-28T11:01:24;8.00;;;5.00;;
64037;SDS011;54641;50.168;8.492;2023-02-28T11:04:18;7.80;;;5.10;;
64037;SDS011;54641;50.168;8.492;2023-02-28T11:07:04;8.60;;;5.00;;
64037;SDS011;54641;50.168;8.492;2023-02-28T11:09:36;8.10;;;5.60;;
64037;SDS011;54641;50.168;8.492;2023-02-28T11:12:17;10.50;;;6.00;;
64037;SDS011;54641;50.168;8.492;2023-02-28T11:14:51;8.90;;;5.50;;
64037;SDS011;54641;50.168;8.492;2023-02-28T11:17:24;8.60;;;5.00;;
64037;SDS011;54641;50.168;8.492;2023-02-28T11:19:56;9.20;;;4.50;;
64037;SDS011;54641;50.168;8.492;2023-02-28T11:22:30;7.10;;;4.40;;
64037;SDS011;54641;50.168;8.492;2023-02-28T11:25:08;8.00;;;5.60;;
64037;SDS011;54641;50.168;8.492;2023-02-28T11:27:47;8.00;;;5.90;;
64037;SDS011;54641;50.168;8.492;2023-02-28T11:30:34;6.70;;;4.90;;
64037;SDS011;54641;50.168;8.492;2023-02-28T11:33:20;8.50;;;4.90;;
64037;SDS011;54641;50.168;8.492;2023-02-28T11:35:52;7.20;;;5.30;;
64037;SDS011;54641;50.168;8.492;2023-02-28T11:38:26;9.60;;;5.50;;
64037;SDS011;54641;50.168;8.492;2023-02-28T11:43:53;7.90;;;5.70;;
64037;SDS011;54641;50.168;8.492;2023-02-28T11:46:33;6.80;;;5.10;;
64037;SDS011;54641;50.168;8.492;2023-02-28T11:49:12;9.40;;;5.80;;
64037;SDS011;54641;50.168;8.492;2023-02-28T11:51:49;7.40;;;5.20;;
64037;SDS011;54641;50.168;8.492;2023-02-28T11:54:30;7.60;;;6.20;;
64037;SDS011;54641;50.168;8.492;2023-02-28T11:57:12;10.60;;;9.50;;
64037;SDS011;54641;50.168;8.492;2023-02-28T11:59:54;9.30;;;6.60;;
64037;SDS011;54641;50.168;8.492;2023-02-28T12:02:42;7.30;;;5.90;;
64037;SDS011;54641;50.168;8.492;2023-02-28T12:05:24;6.90;;;5.60;;
64037;SDS011;54641;50.168;8.492;2023-02-28T12:08:02;9.20;;;6.80;;
64037;SDS011;54641;50.168;8.492;2023-02-28T12:10:39;7.90;;;5.80;;
64037;SDS011;54641;50.168;8.492;2023-02-28T12:13:20;8.40;;;7.00;;
64037;SDS011;54641;50.168;8.492;2023-02-28T12:15:57;7.80;;;6.60;;
64037;SDS011;54641;50.168;8.492;2023-02-28T12:18:42;8.80;;;6.50;;
64037;SDS011;54641;50.168;8.492;2023-02-28T12:21:22;9.70;;;7.20;;
64037;SDS011;54641;50.168;8.492;2023-02-28T12:24:07;8.20;;;6.70;;
64037;SDS011;54641;50.168;8.492;2023-02-28T12:26:57;9.20;;;6.80;;
64037;SDS011;54641;50.168;8.492;2023-02-28T12:29:32;9.00;;;7.00;;
64037;SDS011;54641;50.168;8.492;2023-02-28T12:32:09;8.80;;;7.50;;
64037;SDS011;54641;50.168;8.492;2023-02-28T12:34:41;8.60;;;7.20;;
64037;SDS011;54641;50.168;8.492;2023-02-28T12:37:14;10.20;;;7.60;;
64037;SDS011;54641;50.168;8.492;2023-02-28T12:39:47;9.40;;;7.30;;
64037;SDS011;54641;50.168;8.492;2023-02-28T12:42:24;8.50;;;6.20;;
64037;SDS011;54641;50.168;8.492;2023-02-28T12:44:58;9.10;;;7.50;;
64037;SDS011;54641;50.168;8.492;2023-02-28T12:47:32;9.10;;;7.00;;
64037;SDS011;54641;50.168;8.492;2023-02-28T12:50:05;8.10;;;5.60;;
64037;SDS011;54641;50.168;8.492;2023-02-28T12:52:41;9.30;;;6.60;;
64037;SDS011;54641;50.168;8.492;2023-02-28T12:55:21;10.80;;;8.30;;
64037;SDS011;54641;50.168;8.492;2023-02-28T12:58:01;10.90;;;7.50;;
64037;SDS011;54641;50.168;8.492;2023-02-28T13:00:46;10.50;;;7.90;;
64037;SDS011;54641;50.168;8.492;2023-02-28T13:06:31;10.50;;;8.10;;
64037;SDS011;54641;50.168;8.492;2023-02-28T13:09:13;10.10;;;8.10;;
64037;SDS011;54641;50.168;8.492;2023-02-28T13:11:47;9.20;;;7.70;;
64037;SDS011;54641;50.168;8.492;2023-02-28T13:14:22;7.30;;;6.30;;
64037;SDS011;54641;50.168;8.492;2023-02-28T13:17:00;10.30;;;8.80;;
64037;SDS011;54641;50.168;8.492;2023-02-28T13:19:34;11.80;;;8.80;;
64037;SDS011;54641;50.168;8.492;2023-02-28T13:22:12;9.10;;;7.00;;
64037;SDS011;54641;50.168;8.492;2023-02-28T13:24:49;9.10;;;7.00;;
64037;SDS011;54641;50.168;8.492;2023-02-28T13:27:31;10.00;;;7.90;;
64037;SDS011;54641;50.168;8.492;2023-02-28T13:33:21;8.80;;;6.90;;
64037;SDS011;54641;50.168;8.492;2023-02-28T13:36:26;9.00;;;7.00;;
64037;SDS011;54641;50.168;8.492;2023-02-28T13:46:14;10.40;;;7.60;;
64037;SDS011;54641;50.168;8.492;2023-02-28T13:48:45;9.10;;;7.70;;
64037;SDS011;54641;50.168;8.492;2023-02-28T13:54:17;9.30;;;6.60;;
64037;SDS011;54641;50.168;8.492;2023-02-28T13:56:59;7.90;;;6.00;;
64037;SDS011;54641;50.168;8.492;2023-02-28T13:59:43;8.80;;;6.70;;
64037;SDS011;54641;50.168;8.492;2023-02-28T14:02:32;8.00;;;5.50;;
64037;SDS011;54641;50.168;8.492;2023-02-28T14:05:10;9.40;;;7.30;;
64037;SDS011;54641;50.168;8.492;2023-02-28T14:07:45;8.70;;;6.40;;
64037;SDS011;54641;50.168;8.492;2023-02-28T14:10:22;10.30;;;7.10;;
64037;SDS011;54641;50.168;8.492;2023-02-28T14:12:55;12.80;;;8.00;;
64037;SDS011;54641;50.168;8.492;2023-02-28T14:15:36;10.00;;;6.60;;
64037;SDS011;54641;50.168;8.492;2023-02-28T14:18:20;8.20;;;5.70;;
64037;SDS011;54641;50.168;8.492;2023-02-28T14:20:57;9.10;;;5.50;;
64037;SDS011;54641;50.168;8.492;2023-02-28T14:23:39;12.20;;;7.20;;
64037;SDS011;54641;50.168;8.492;2023-02-28T14:26:31;8.80;;;5.30;;
64037;SDS011;54641;50.168;8.492;2023-02-28T14:29:17;9.70;;;5.70;;
64037;SDS011;54641;50.168;8.492;2023-02-28T14:31:57;7.80;;;5.10;;
64037;SDS011;54641;50.168;8.492;2023-02-28T14:34:35;10.40;;;6.50;;
64037;SDS011;54641;50.168;8.492;2023-02-28T14:37:10;8.90;;;5.50;;
64037;SDS011;54641;50.168;8.492;2023-02-28T14:39:45;8.70;;;5.20;;
64037;SDS011;54641;50.168;8.492;2023-02-28T14:45:02;10.30;;;6.50;;
64037;SDS011;54641;50.168;8.492;2023-02-28T14:47:33;9.30;;;5.60;;
64037;SDS011;54641;50.168;8.492;2023-02-28T14:50:05;8.30;;;4.50;;
64037;SDS011;54641;50.168;8.492;2023-02-28T14:52:46;8.70;;;4.50;;
64037;SDS011;54641;50.168;8.492;2023-02-28T14:55:18;8.90;;;5.10;;
64037;SDS011;54641;50.168;8.492;2023-02-28T14:57:52;9.80;;;5.90;;
64037;SDS011;54641;50.168;8.492;2023-02-28T15:00:25;9.60;;;6.00;;
64037;SDS011;54641;50.168;8.492;2023-02-28T15:02:57;8.90;;;4.80;;
64037;SDS011;54641;50.168;8.492;2023-02-28T15:05:30;9.40;;;5.30;;
64037;SDS011;54641;50.168;8.492;2023-02-28T15:08:03;9.90;;;6.50;;
64037;SDS011;54641;50.168;8.492;2023-02-28T15:10:36;10.70;;;6.20;;
64037;SDS011;54641;50.168;8.492;2023-02-28T15:13:10;9.80;;;6.50;;
64037;SDS011;54641;50.168;8.492;2023-02-28T15:15:46;10.60;;;5.80;;
64037;SDS011;54641;50.168;8.492;2023-02-28T15:18:33;9.90;;;6.20;;
64037;SDS011;54641;50.168;8.492;2023-02-28T15:21:11;11.60;;;6.00;;
64037;SDS011;54641;50.168;8.492;2023-02-28T15:23:46;9.70;;;6.10;;
64037;SDS011;54641;50.168;8.492;2023-02-28T15:26:19;8.80;;;5.60;;
64037;SDS011;54641;50.168;8.492;2023-02-28T15:28:52;10.60;;;5.50;;
64037;SDS011;54641;50.168;8.492;2023-02-28T15:31:27;11.90;;;6.70;;
64037;SDS011;54641;50.168;8.492;2023-02-28T15:36:55;9.60;;;5.50;;
64037;SDS011;54641;50.168;8.492;2023-02-28T15:39:26;9.00;;;5.10;;
64037;SDS011;54641;50.168;8.492;2023-02-28T15:42:16;9.90;;;5.60;;
64037;SDS011;54641;50.168;8.492;2023-02-28T15:44:49;8.70;;;4.50;;
64037;SDS011;54641;50.168;8.492;2023-02-28T15:47:20;9.60;;;5.30;;
64037;SDS011;54641;50.168;8.492;2023-02-28T15:49:53;11.10;;;5.70;;
64037;SDS011;54641;50.168;8.492;2023-02-28T15:52:27;10.60;;;5.70;;
64037;SDS011;54641;50.168;8.492;2023-02-28T15:55:07;8.60;;;5.30;;
64037;SDS011;54641;50.168;8.492;2023-02-28T15:57:40;11.70;;;6.40;;
64037;SDS011;54641;50.168;8.492;2023-02-28T16:00:12;8.80;;;4.60;;
64037;SDS011;54641;50.168;8.492;2023-02-28T16:02:45;10.60;;;6.50;;
64037;SDS011;54641;50.168;8.492;2023-02-28T16:05:20;9.10;;;5.20;;
64037;SDS011;54641;50.168;8.492;2023-02-28T16:07:58;13.60;;;8.10;;
64037;SDS011;54641;50.168;8.492;2023-02-28T16:10:30;13.20;;;7.60;;
64037;SDS011;54641;50.168;8.492;2023-02-28T16:13:01;10.90;;;6.30;;
64037;SDS011;54641;50.168;8.492;2023-02-28T16:15:34;11.10;;;6.30;;
64037;SDS011;54641;50.168;8.492;2023-02-28T16:18:09;8.50;;;5.80;;